Time;durP1;ratioP1;P1;durP2;ratioP2;P2;SDS_P1;SDS_P2;PMS_P1;PMS_P2;Temp;Humidity;BMP_temperature;BMP_pressure;BME280_temperature;BME280_humidity;BME280_pressure;Samples;Min_cycle;Max_cycle;Signal;HPM_P1;HPM_P2
2022/06/01 00:00:54;;;;;;;16.13;12.70;;;11.20;99.90;;;;;;4865360;29;20052;-82
2022/06/01 00:03:20;;;;;;;16.90;12.40;;;11.20;99.90;;;;;;4854343;29;20131;-82
2022/06/01 00:05:46;;;;;;;15.50;12.30;;;11.20;99.90;;;;;;4882002;29;20186;-82
2022/06/01 00:08:12;;;;;;;17.17;13.20;;;11.10;99.90;;;;;;4865138;29;20104;-82
2022/06/01 00:10:38;;;;;;;16.60;12.47;;;11.10;99.90;;;;;;4850912;29;20076;-82
2022/06/01 00:13:03;;;;;;;15.40;12.57;;;11.10;99.90;;;;;;4880265;29;20044;-82
2022/06/01 00:15:30;;;;;;;16.00;12.50;;;11.10;99.90;;;;;;4844038;29;20056;-82
2022/06/01 00:17:58;;;;;;;15.87;12.70;;;11.00;99.90;;;;;;4844965;29;20068;-81
2022/06/01 00:20:25;;;;;;;18.47;13.00;;;11.00;99.90;;;;;;4882437;29;20112;-82
2022/06/01 00:22:51;;;;;;;16.53;12.37;;;11.00;99.90;;;;;;4864955;29;20088;-82
2022/06/01 00:25:17;;;;;;;15.70;12.23;;;11.00;99.90;;;;;;4866633;29;20571;-82
2022/06/01 00:27:43;;;;;;;16.90;11.90;;;11.00;99.90;;;;;;4880104;29;20036;-82
2022/06/01 00:30:13;;;;;;;16.30;12.73;;;11.00;99.90;;;;;;4847070;29;20406;-82
2022/06/01 00:32:40;;;;;;;18.47;12.77;;;11.00;99.90;;;;;;4859448;29;20052;-82
2022/06/01 00:35:07;;;;;;;17.73;13.13;;;10.90;99.90;;;;;;4880476;29;20048;-82
2022/06/01 00:37:33;;;;;;;14.53;12.13;;;11.00;99.90;;;;;;4880559;29;20044;-82
2022/06/01 00:39:58;;;;;;;14.47;12.20;;;10.90;99.90;;;;;;4857438;29;20044;-82
2022/06/01 00:42:27;;;;;;;14.17;11.47;;;11.00;99.90;;;;;;4875257;29;20048;-83
2022/06/01 00:44:54;;;;;;;15.60;11.30;;;10.90;99.90;;;;;;4885615;29;20104;-82
2022/06/01 00:47:21;;;;;;;13.07;11.00;;;10.90;99.90;;;;;;4876545;29;20045;-82
2022/06/01 00:49:56;;;;;;;13.33;11.27;;;10.90;99.90;;;;;;4879550;29;20067;-82
2022/06/01 00:52:35;;;;;;;14.03;11.53;;;10.90;99.90;;;;;;4863943;29;20040;-81
2022/06/01 00:55:15;;;;;;;14.57;11.90;;;10.90;99.90;;;;;;4865813;29;20885;-81
2022/06/01 00:57:42;;;;;;;14.20;11.00;;;10.90;99.90;;;;;;4879877;29;20515;-81
2022/06/01 01:00:17;;;;;;;14.93;11.93;;;10.90;99.90;;;;;;4867385;29;20040;-81
2022/06/01 01:02:44;;;;;;;14.57;10.70;;;10.90;99.90;;;;;;4866597;29;20120;-81
2022/06/01 01:05:13;;;;;;;15.40;11.90;;;10.90;99.90;;;;;;4869217;29;20521;-81
2022/06/01 01:07:40;;;;;;;14.80;11.10;;;10.90;99.90;;;;;;4878098;29;20055;-85
2022/06/01 01:10:07;;;;;;;16.10;11.60;;;10.90;99.90;;;;;;4870320;29;20040;-84
2022/06/01 01:12:56;;;;;;;15.80;13.07;;;10.80;99.90;;;;;;4864649;29;20045;-85
2022/06/01 01:15:20;;;;;;;19.70;14.70;;;10.80;99.90;;;;;;4855831;29;20124;-85
2022/06/01 01:17:48;;;;;;;19.83;14.97;;;10.80;99.90;;;;;;4867593;29;20056;-85
2022/06/01 01:20:15;;;;;;;15.50;13.40;;;10.80;99.90;;;;;;4868748;29;20104;-86
2022/06/01 01:23:06;;;;;;;17.77;14.10;;;10.90;99.90;;;;;;4849062;29;20496;-85
2022/06/01 01:25:35;;;;;;;16.20;13.00;;;10.90;99.90;;;;;;4879526;29;20044;-85
2022/06/01 01:28:03;;;;;;;18.37;13.93;;;10.90;99.90;;;;;;4888946;29;20061;-86
2022/06/01 01:30:32;;;;;;;16.03;12.67;;;10.90;99.90;;;;;;4869222;29;20044;-85
2022/06/01 01:33:01;;;;;;;17.97;13.80;;;10.90;99.90;;;;;;4875569;29;20044;-85
2022/06/01 01:35:26;;;;;;;17.03;13.23;;;10.90;99.90;;;;;;4863331;29;20045;-85
2022/06/01 01:37:52;;;;;;;18.07;13.97;;;10.90;99.90;;;;;;4864543;29;20782;-85
2022/06/01 01:40:18;;;;;;;17.77;13.47;;;10.90;99.90;;;;;;4848400;29;21638;-85
2022/06/01 01:42:45;;;;;;;17.23;13.90;;;10.90;99.90;;;;;;4860325;29;20136;-85
2022/06/01 01:45:26;;;;;;;17.73;13.27;;;10.90;99.90;;;;;;4864534;29;20112;-85
2022/06/01 01:47:53;;;;;;;17.08;14.23;;;10.90;99.90;;;;;;4864056;29;20045;-85
2022/06/01 01:50:20;;;;;;;17.17;13.20;;;10.90;99.90;;;;;;4880916;29;20105;-85
2022/06/01 01:52:47;;;;;;;20.37;14.27;;;10.80;99.90;;;;;;4864331;29;20320;-85
2022/06/01 01:55:38;;;;;;;17.20;14.00;;;10.80;99.90;;;;;;4892803;29;20144;-85
2022/06/01 01:58:37;;;;;;;17.23;13.63;;;10.80;99.90;;;;;;4878701;29;20044;-85
2022/06/01 02:01:18;;;;;;;18.37;14.00;;;10.80;99.90;;;;;;4862139;29;20120;-85
2022/06/01 02:03:57;;;;;;;17.83;14.20;;;10.70;99.90;;;;;;4879315;29;20043;-85
2022/06/01 02:06:41;;;;;;;17.60;13.80;;;10.70;99.90;;;;;;4861962;29;20427;-85
2022/06/01 02:09:13;;;;;;;19.67;15.30;;;10.70;99.90;;;;;;4877876;29;20044;-85
2022/06/01 02:14:52;;;;;;;21.43;15.27;;;10.60;99.90;;;;;;4877701;29;20555;-85
2022/06/01 02:17:28;;;;;;;18.07;14.70;;;10.60;99.90;;;;;;4849217;29;20068;-85
2022/06/01 02:20:13;;;;;;;17.60;14.50;;;10.50;99.90;;;;;;4866411;29;20053;-85
2022/06/01 02:22:40;;;;;;;22.57;15.53;;;10.50;99.90;;;;;;4882133;29;20040;-85
2022/06/01 02:25:09;;;;;;;18.23;14.47;;;10.50;99.90;;;;;;4867799;29;20096;-85
2022/06/01 02:27:36;;;;;;;19.53;15.10;;;10.50;99.90;;;;;;4876962;29;20032;-85
2022/06/01 02:30:15;;;;;;;18.57;14.37;;;10.50;99.90;;;;;;4849155;29;20081;-85
2022/06/01 02:32:43;;;;;;;21.83;15.80;;;10.40;99.90;;;;;;4887511;29;20052;-85
2022/06/01 02:35:12;;;;;;;19.80;15.07;;;10.40;99.90;;;;;;4867519;29;20045;-85
2022/06/01 02:37:42;;;;;;;22.13;16.30;;;10.40;99.90;;;;;;4881371;29;20062;-85
2022/06/01 02:40:13;;;;;;;20.10;17.23;;;10.40;99.90;;;;;;4880100;29;20048;-85
2022/06/01 02:42:47;;;;;;;21.97;16.77;;;10.40;99.90;;;;;;4885254;29;20051;-85
2022/06/01 02:45:13;;;;;;;26.40;18.00;;;10.50;99.90;;;;;;4882351;29;20056;-85
2022/06/01 02:47:42;;;;;;;21.83;16.57;;;10.50;99.90;;;;;;4882288;29;20032;-85
2022/06/01 02:50:12;;;;;;;21.33;17.20;;;10.50;99.90;;;;;;4882448;29;20091;-85
2022/06/01 02:52:38;;;;;;;19.33;16.03;;;10.50;99.90;;;;;;4883511;29;20048;-85
2022/06/01 02:55:05;;;;;;;20.33;17.53;;;10.50;99.90;;;;;;4866204;29;20510;-85
2022/06/01 02:57:36;;;;;;;20.27;16.73;;;10.50;99.90;;;;;;4881457;29;20048;-85
2022/06/01 03:00:07;;;;;;;21.10;17.67;;;10.60;99.90;;;;;;4861678;29;20044;-85
2022/06/01 03:02:40;;;;;;;21.02;17.60;;;10.50;99.90;;;;;;4872580;29;20043;-85
2022/06/01 03:05:06;;;;;;;21.67;17.63;;;10.50;99.90;;;;;;4884325;29;20508;-85
2022/06/01 03:07:32;;;;;;;21.50;17.47;;;10.50;99.90;;;;;;4879010;29;20483;-85
2022/06/01 03:09:58;;;;;;;23.53;18.57;;;10.50;99.90;;;;;;4862215;29;20101;-85
2022/06/01 03:12:23;;;;;;;22.33;18.23;;;10.50;99.90;;;;;;4866204;29;20139;-85
2022/06/01 03:14:49;;;;;;;25.13;19.23;;;10.50;99.90;;;;;;4865250;29;20051;-86
2022/06/01 03:17:15;;;;;;;22.93;19.37;;;10.50;99.90;;;;;;4850509;29;20056;-85
2022/06/01 03:19:41;;;;;;;22.70;18.20;;;10.50;99.90;;;;;;4884173;29;20060;-85
2022/06/01 03:22:06;;;;;;;24.70;19.60;;;10.50;99.90;;;;;;4893139;29;20040;-85
2022/06/01 03:24:32;;;;;;;23.00;18.43;;;10.50;99.90;;;;;;4870161;29;20556;-85
2022/06/01 03:26:59;;;;;;;20.87;18.23;;;10.50;99.90;;;;;;4886155;29;20048;-85
2022/06/01 03:29:24;;;;;;;24.63;19.77;;;10.50;99.90;;;;;;4881641;29;20128;-85
2022/06/01 03:31:51;;;;;;;24.23;19.90;;;10.50;99.90;;;;;;4866107;29;20123;-85
2022/06/01 03:34:18;;;;;;;26.63;20.27;;;10.50;99.90;;;;;;4881293;29;20054;-85
2022/06/01 03:36:44;;;;;;;26.87;20.20;;;10.50;99.90;;;;;;4878612;29;20055;-85
2022/06/01 03:39:10;;;;;;;26.77;21.00;;;10.50;99.90;;;;;;4878761;29;20048;-85
2022/06/01 03:41:36;;;;;;;27.17;20.37;;;10.50;99.90;;;;;;4866420;29;20052;-85
2022/06/01 03:46:46;;;;;;;25.43;21.50;;;10.60;99.90;;;;;;4881467;29;20048;-85
2022/06/01 03:49:11;;;;;;;26.20;21.47;;;10.50;99.90;;;;;;4881839;29;20061;-85
2022/06/01 03:51:37;;;;;;;26.00;21.17;;;10.60;99.90;;;;;;4877969;29;20067;-85
2022/06/01 03:54:06;;;;;;;29.10;21.87;;;10.60;99.90;;;;;;4862920;29;20491;-85
2022/06/01 03:56:32;;;;;;;29.80;22.47;;;10.60;99.90;;;;;;4857722;29;20123;-85
2022/06/01 03:58:58;;;;;;;26.40;21.73;;;10.60;99.90;;;;;;4843315;29;20049;-85
2022/06/01 04:01:24;;;;;;;32.80;24.17;;;10.70;99.90;;;;;;4883275;29;20055;-84
2022/06/01 04:03:50;;;;;;;29.07;22.87;;;10.60;99.90;;;;;;4869982;29;20398;-84
2022/06/01 04:06:16;;;;;;;26.47;22.50;;;10.70;99.90;;;;;;4871854;29;20484;-84
2022/06/01 04:08:41;;;;;;;29.67;23.00;;;10.70;99.90;;;;;;4877079;29;20060;-84
2022/06/01 04:11:07;;;;;;;33.00;24.47;;;10.70;99.90;;;;;;4873359;29;20048;-83
2022/06/01 04:13:33;;;;;;;33.37;25.33;;;10.70;99.90;;;;;;4864535;29;20055;-84
2022/06/01 04:15:59;;;;;;;31.43;24.23;;;10.70;99.90;;;;;;4880275;29;20047;-85
2022/06/01 04:18:25;;;;;;;30.70;24.20;;;10.70;99.90;;;;;;4854631;29;20053;-85
2022/06/01 04:20:53;;;;;;;31.73;24.37;;;10.80;99.90;;;;;;4881812;29;20626;-85
2022/06/01 04:23:19;;;;;;;31.97;24.80;;;10.80;99.90;;;;;;4862624;29;20040;-84
2022/06/01 04:25:45;;;;;;;29.47;22.97;;;10.80;99.90;;;;;;4877381;29;20036;-85
2022/06/01 04:28:11;;;;;;;30.07;24.00;;;10.80;99.90;;;;;;4855962;29;20095;-85
2022/06/01 04:30:38;;;;;;;32.63;24.73;;;10.80;99.90;;;;;;4855801;29;20127;-86
2022/06/01 04:33:04;;;;;;;32.83;25.33;;;10.80;99.90;;;;;;4857301;29;20089;-84
2022/06/01 04:35:30;;;;;;;30.67;25.10;;;10.80;99.90;;;;;;4849567;29;20036;-85
2022/06/01 04:38:14;;;;;;;31.13;24.23;;;10.80;99.90;;;;;;4872041;29;20051;-85
2022/06/01 04:40:43;;;;;;;31.47;24.57;;;10.90;99.90;;;;;;4861496;29;20044;-84
2022/06/01 04:43:12;;;;;;;31.90;25.63;;;10.90;99.90;;;;;;4874815;29;20048;-84
2022/06/01 04:45:38;;;;;;;34.30;25.13;;;10.90;99.90;;;;;;4880024;29;20036;-83
2022/06/01 04:48:04;;;;;;;34.77;25.50;;;10.90;99.90;;;;;;4866113;29;20047;-83
2022/06/01 04:50:29;;;;;;;32.40;25.80;;;10.90;99.90;;;;;;4880907;29;20037;-84
2022/06/01 04:52:55;;;;;;;32.00;25.67;;;11.00;99.90;;;;;;4866691;29;20037;-84
2022/06/01 04:55:22;;;;;;;32.20;24.83;;;11.00;99.90;;;;;;4848815;29;20043;-85
2022/06/01 04:57:48;;;;;;;30.13;23.80;;;11.00;99.90;;;;;;4866804;29;20108;-83
2022/06/01 05:00:14;;;;;;;30.87;24.73;;;11.10;99.90;;;;;;4864699;29;20048;-85
2022/06/01 05:02:40;;;;;;;31.60;24.30;;;11.10;99.90;;;;;;4848924;29;20398;-85
2022/06/01 05:05:06;;;;;;;30.10;24.07;;;11.10;99.90;;;;;;4855439;29;20041;-85
2022/06/01 05:07:32;;;;;;;32.13;25.27;;;11.10;99.90;;;;;;4869889;29;20401;-85
2022/06/01 05:09:58;;;;;;;30.37;24.07;;;11.10;99.90;;;;;;4881017;29;20041;-85
2022/06/01 05:12:24;;;;;;;32.80;24.47;;;11.10;99.90;;;;;;4862438;29;20056;-85
2022/06/01 05:14:49;;;;;;;29.30;23.50;;;11.10;99.90;;;;;;4884941;29;20079;-85
2022/06/01 05:17:15;;;;;;;30.10;24.00;;;11.20;99.90;;;;;;4855649;29;20132;-85
2022/06/01 05:19:41;;;;;;;30.47;25.00;;;11.10;99.90;;;;;;4873216;29;20052;-85
2022/06/01 05:22:07;;;;;;;31.23;23.70;;;11.20;99.90;;;;;;4869682;29;20430;-85
2022/06/01 05:24:32;;;;;;;32.17;23.30;;;11.20;99.90;;;;;;4864933;29;20104;-85
2022/06/01 05:26:58;;;;;;;28.30;22.47;;;11.20;99.90;;;;;;4895920;29;20787;-85
2022/06/01 05:29:24;;;;;;;27.13;21.70;;;11.20;99.90;;;;;;4850027;29;20040;-85
2022/06/01 05:31:50;;;;;;;27.43;20.83;;;11.20;99.90;;;;;;4866771;29;20040;-86
2022/06/01 05:34:16;;;;;;;26.10;21.73;;;11.20;99.90;;;;;;4864122;29;20045;-86
2022/06/01 05:36:41;;;;;;;26.87;20.73;;;11.20;99.90;;;;;;4863580;29;20048;-85
2022/06/01 05:39:07;;;;;;;27.10;20.13;;;11.20;99.90;;;;;;4848210;29;20045;-86
2022/06/01 05:41:34;;;;;;;25.33;20.70;;;11.30;99.90;;;;;;4865405;29;20615;-86
2022/06/01 05:43:59;;;;;;;28.10;20.43;;;11.30;99.90;;;;;;4884117;29;20040;-85
2022/06/01 05:46:26;;;;;;;26.27;19.93;;;11.30;99.90;;;;;;4867928;29;20124;-86
2022/06/01 05:48:52;;;;;;;25.63;19.30;;;11.30;99.90;;;;;;4867050;29;20372;-85
2022/06/01 05:51:18;;;;;;;23.57;18.97;;;11.30;99.90;;;;;;4865155;29;20051;-86
2022/06/01 05:53:44;;;;;;;21.73;18.80;;;11.30;99.90;;;;;;4854758;29;20036;-85
2022/06/01 05:56:10;;;;;;;20.77;17.73;;;11.30;99.90;;;;;;4882928;29;20350;-85
2022/06/01 05:58:36;;;;;;;26.07;18.83;;;11.40;99.90;;;;;;4875384;29;20147;-86
2022/06/01 06:01:05;;;;;;;24.30;19.13;;;11.40;99.90;;;;;;4877027;29;20484;-85
2022/06/01 06:03:31;;;;;;;22.17;18.17;;;11.50;99.90;;;;;;4871490;29;20075;-85
2022/06/01 06:06:13;;;;;;;22.07;16.70;;;11.50;99.90;;;;;;4845940;29;20049;-86
2022/06/01 06:08:42;;;;;;;24.70;18.83;;;11.60;99.90;;;;;;4871517;29;20053;-86
2022/06/01 06:11:08;;;;;;;22.17;17.27;;;11.60;99.90;;;;;;4884189;29;20401;-84
2022/06/01 06:13:35;;;;;;;21.20;16.27;;;11.70;99.90;;;;;;4857828;29;20048;-84
2022/06/01 06:16:01;;;;;;;17.13;13.90;;;11.70;99.90;;;;;;4867901;29;20486;-85
2022/06/01 06:18:27;;;;;;;17.40;14.30;;;11.80;99.90;;;;;;4899162;29;20113;-85
2022/06/01 06:20:53;;;;;;;19.30;14.13;;;11.80;99.90;;;;;;4868199;29;20460;-85
2022/06/01 06:23:19;;;;;;;18.07;14.70;;;11.80;99.90;;;;;;4870456;29;20061;-85
2022/06/01 06:25:44;;;;;;;16.93;14.30;;;11.90;99.90;;;;;;4872841;29;20040;-85
2022/06/01 06:28:11;;;;;;;16.57;14.23;;;11.90;99.90;;;;;;4852412;29;20046;-84
2022/06/01 06:30:38;;;;;;;15.73;13.93;;;12.00;99.90;;;;;;4883906;29;20044;-85
2022/06/01 06:33:06;;;;;;;19.80;15.60;;;12.10;99.90;;;;;;4884277;29;20463;-84
2022/06/01 06:35:32;;;;;;;20.97;16.87;;;12.10;99.90;;;;;;4890239;29;20032;-85
2022/06/01 06:37:58;;;;;;;19.77;15.77;;;12.20;99.90;;;;;;4891050;29;20043;-83
2022/06/01 06:40:24;;;;;;;17.57;14.50;;;12.30;99.90;;;;;;4882915;29;20167;-84
2022/06/01 06:42:51;;;;;;;20.47;15.27;;;12.30;99.90;;;;;;4867497;29;20123;-84
2022/06/01 06:45:17;;;;;;;21.10;16.50;;;12.30;99.90;;;;;;4882323;29;20127;-84
2022/06/01 06:47:43;;;;;;;23.70;19.30;;;12.40;99.90;;;;;;4884644;29;20044;-85
2022/06/01 06:50:11;;;;;;;25.40;17.93;;;12.50;99.90;;;;;;4882107;29;20041;-84
2022/06/01 06:52:37;;;;;;;23.57;18.87;;;12.50;99.90;;;;;;4866129;29;20084;-85
2022/06/01 06:55:02;;;;;;;21.83;16.23;;;12.60;99.90;;;;;;4859485;29;20078;-85
2022/06/01 06:57:28;;;;;;;17.57;14.90;;;12.70;99.90;;;;;;4867410;29;20079;-84
2022/06/01 06:59:54;;;;;;;21.77;16.83;;;12.70;99.90;;;;;;4867747;29;20040;-83
2022/06/01 07:02:19;;;;;;;22.17;17.40;;;12.80;99.90;;;;;;4871258;29;20080;-82
2022/06/01 07:04:46;;;;;;;21.70;16.73;;;12.80;99.90;;;;;;4883365;29;20048;-82
2022/06/01 07:07:14;;;;;;;20.90;17.70;;;12.90;99.90;;;;;;4867730;29;20059;-83
2022/06/01 07:09:40;;;;;;;21.57;17.30;;;12.90;99.90;;;;;;4882408;29;20051;-84
2022/06/01 07:12:06;;;;;;;22.50;18.83;;;12.90;99.90;;;;;;4881595;29;20052;-84
2022/06/01 07:14:32;;;;;;;22.83;18.10;;;12.90;99.90;;;;;;4842583;29;20052;-83
2022/06/01 07:17:02;;;;;;;22.50;18.47;;;13.00;99.90;;;;;;4840765;29;20049;-84
2022/06/01 07:19:28;;;;;;;24.20;18.87;;;13.00;99.90;;;;;;4881721;29;20052;-84
2022/06/01 07:21:54;;;;;;;23.10;17.70;;;13.00;99.90;;;;;;4858994;29;20109;-84
2022/06/01 07:24:20;;;;;;;25.60;19.10;;;13.00;99.90;;;;;;4864665;29;20072;-84
2022/06/01 07:26:46;;;;;;;21.20;17.23;;;13.10;99.90;;;;;;4864531;29;20082;-84
2022/06/01 07:29:14;;;;;;;24.23;20.03;;;13.20;99.90;;;;;;4853389;29;20414;-83
2022/06/01 07:31:41;;;;;;;21.57;18.53;;;13.20;99.90;;;;;;4882386;29;20048;-85
2022/06/01 07:34:07;;;;;;;19.70;16.17;;;13.40;99.90;;;;;;4853836;29;20049;-85
2022/06/01 07:36:34;;;;;;;20.63;17.50;;;13.80;99.90;;;;;;4854482;29;20463;-85
2022/06/01 07:44:49;;;;;;;130.27;118.20;;;15.00;99.90;;;;;;4874530;29;20562;-84
2022/06/01 07:47:15;;;;;;;15.23;11.07;;;15.30;99.90;;;;;;4866267;29;20127;-84
2022/06/01 07:49:41;;;;;;;14.60;11.17;;;15.30;99.90;;;;;;4881667;29;20043;-85
2022/06/01 07:52:08;;;;;;;14.80;12.60;;;15.10;99.90;;;;;;4848247;29;20040;-84
2022/06/01 07:54:39;;;;;;;13.63;11.73;;;14.90;99.90;;;;;;4863666;29;20051;-85
2022/06/01 07:57:05;;;;;;;13.70;10.97;;;14.70;99.90;;;;;;4854749;29;20045;-84
2022/06/01 07:59:31;;;;;;;8.83;7.47;;;14.50;99.90;;;;;;4851295;29;20043;-84
2022/06/01 08:01:57;;;;;;;10.00;8.30;;;14.30;99.90;;;;;;4869150;29;20041;-84
2022/06/01 08:04:23;;;;;;;11.33;9.30;;;14.00;99.90;;;;;;4863049;29;20051;-86
2022/06/01 08:06:49;;;;;;;12.53;10.27;;;13.80;99.90;;;;;;4849503;29;20044;-84
2022/06/01 08:09:15;;;;;;;11.43;9.50;;;13.60;99.90;;;;;;4850957;29;20108;-84
2022/06/01 08:14:24;;;;;;;6.83;5.10;;;13.00;99.90;;;;;;4859153;29;20059;-84
2022/06/01 08:16:50;;;;;;;3.63;3.00;;;12.70;99.90;;;;;;4860449;29;20127;-83
2022/06/01 08:19:17;;;;;;;2.80;2.10;;;12.40;99.90;;;;;;4865662;29;20425;-84
2022/06/01 08:21:43;;;;;;;2.10;1.60;;;12.20;99.90;;;;;;4850124;29;20127;-84
2022/06/01 08:24:10;;;;;;;2.03;1.50;;;12.00;99.90;;;;;;4879125;29;20040;-83
2022/06/01 08:26:36;;;;;;;1.67;1.50;;;11.80;99.90;;;;;;4860655;29;20847;-83
2022/06/01 08:29:02;;;;;;;3.77;1.73;;;11.60;99.90;;;;;;4879489;29;20123;-83
2022/06/01 08:31:29;;;;;;;2.80;1.80;;;11.50;99.90;;;;;;4880934;29;20060;-84
2022/06/01 08:33:57;;;;;;;3.50;1.90;;;11.30;99.90;;;;;;4896699;29;20057;-84
2022/06/01 08:36:22;;;;;;;2.77;2.23;;;11.20;99.90;;;;;;4882116;29;20037;-84
2022/06/01 08:38:48;;;;;;;3.63;2.83;;;11.10;99.90;;;;;;4888304;29;20052;-84
2022/06/01 08:41:16;;;;;;;3.93;3.10;;;11.10;99.90;;;;;;4875537;29;20151;-84
2022/06/01 08:43:50;;;;;;;3.33;3.10;;;11.00;99.90;;;;;;4857410;29;20080;-83
2022/06/01 08:46:17;;;;;;;4.47;3.20;;;11.00;99.90;;;;;;4889914;29;20048;-83
2022/06/01 08:48:49;;;;;;;7.13;3.83;;;11.00;99.90;;;;;;4851692;29;20048;-83
2022/06/01 08:51:19;;;;;;;4.18;3.40;;;11.00;99.90;;;;;;4888890;29;20076;-83
2022/06/01 08:53:45;;;;;;;4.70;3.30;;;11.00;99.90;;;;;;4880694;29;20549;-83
2022/06/01 08:56:18;;;;;;;4.20;2.90;;;11.10;99.90;;;;;;4861435;29;20124;-84
2022/06/01 08:59:13;;;;;;;6.70;3.20;;;11.20;99.90;;;;;;4857702;29;20045;-83
2022/06/01 09:02:06;;;;;;;16.20;7.23;;;11.30;99.90;;;;;;4878944;29;20051;-83
2022/06/01 09:04:43;;;;;;;6.00;3.57;;;11.40;99.90;;;;;;4860626;29;20089;-83
2022/06/01 09:07:21;;;;;;;4.17;3.20;;;11.70;99.90;;;;;;4872696;29;20407;-82
2022/06/01 09:10:22;;;;;;;3.27;2.67;;;12.10;99.90;;;;;;4890709;29;20052;-84
2022/06/01 09:12:55;;;;;;;2.37;2.13;;;12.60;99.90;;;;;;4881053;29;20706;-84
2022/06/01 09:15:26;;;;;;;2.40;2.20;;;13.10;99.90;;;;;;4880911;29;20054;-84
2022/06/01 09:17:54;;;;;;;2.17;1.80;;;13.60;99.90;;;;;;4895586;29;20383;-83
2022/06/01 09:23:13;;;;;;;1.43;1.30;;;14.10;99.90;;;;;;4868276;29;20478;-83
2022/06/01 09:25:48;;;;;;;1.47;1.20;;;14.50;99.90;;;;;;4890778;29;20041;-82
2022/06/01 09:28:23;;;;;;;2.93;1.77;;;14.80;99.90;;;;;;4889172;29;20044;-83
2022/06/01 09:31:22;;;;;;;1.27;1.17;;;15.10;99.90;;;;;;4887502;29;20039;-83
2022/06/01 09:33:49;;;;;;;1.70;1.60;;;15.30;99.90;;;;;;4893720;29;20052;-82
2022/06/01 09:36:25;;;;;;;2.20;1.93;;;15.60;99.90;;;;;;4863268;29;20056;-83
2022/06/01 09:39:03;;;;;;;1.50;1.40;;;15.80;99.90;;;;;;4872096;29;20502;-83
2022/06/01 09:41:40;;;;;;;2.05;1.67;;;16.00;99.90;;;;;;4855411;29;20041;-82
2022/06/01 09:44:12;;;;;;;1.50;1.40;;;16.20;99.90;;;;;;4878262;29;20044;-84
2022/06/01 09:46:40;;;;;;;1.88;1.67;;;16.40;99.90;;;;;;4857834;29;20052;-83
2022/06/01 09:49:25;;;;;;;1.77;1.58;;;16.50;99.90;;;;;;4872864;29;20055;-83
2022/06/01 09:52:07;;;;;;;3.13;2.75;;;16.80;99.90;;;;;;4872939;29;20041;-83
2022/06/01 09:54:37;;;;;;;3.28;3.05;;;16.90;99.90;;;;;;4863931;29;20060;-83
2022/06/01 09:57:18;;;;;;;4.40;4.00;;;17.00;99.90;;;;;;4850178;29;20092;-83
2022/06/01 10:08:21;;;;;;;4.95;4.05;;;17.40;99.90;;;;;;4882852;29;20051;-85
2022/06/01 10:11:00;;;;;;;4.35;3.95;;;17.50;99.90;;;;;;4861782;29;20075;-85
2022/06/01 10:13:35;;;;;;;5.40;4.90;;;17.20;99.90;;;;;;4879333;29;20390;-84
2022/06/01 10:16:19;;;;;;;6.43;5.70;;;17.00;99.90;;;;;;4866397;29;20395;-83
2022/06/01 10:18:46;;;;;;;7.72;6.45;;;17.10;99.90;;;;;;4870766;29;20556;-83
2022/06/01 10:21:15;;;;;;;6.30;5.70;;;17.00;99.90;;;;;;4863907;29;20041;-83
2022/06/01 10:23:44;;;;;;;5.97;5.38;;;16.90;99.90;;;;;;4867300;29;20047;-83
2022/06/01 10:26:14;;;;;;;5.88;4.78;;;16.70;99.90;;;;;;4864068;29;20123;-84
2022/06/01 10:28:48;;;;;;;4.88;4.38;;;16.40;99.90;;;;;;4896218;29;20508;-84
2022/06/01 10:31:34;;;;;;;5.07;4.68;;;16.10;99.90;;;;;;4865590;29;20052;-83
2022/06/01 10:34:10;;;;;;;4.80;4.40;;;15.80;99.90;;;;;;4868165;29;20037;-82
2022/06/01 10:36:52;;;;;;;5.68;5.07;;;15.60;99.90;;;;;;4883185;29;20041;-83
2022/06/01 10:39:23;;;;;;;;;;;15.40;99.90;;;;;;4869208;29;20053;-83
2022/06/01 10:42:04;;;;;;;5.45;4.93;;;15.20;99.90;;;;;;4866589;29;19920;-82
2022/06/01 10:45:08;;;;;;;6.43;5.28;;;14.90;99.90;;;;;;4874938;29;20237;-82
2022/06/01 10:48:00;;;;;;;5.97;5.43;;;14.80;99.90;;;;;;4844274;29;20060;-83
2022/06/01 10:50:58;;;;;;;7.93;5.22;;;14.70;99.90;;;;;;4874044;29;20048;-83
2022/06/01 10:53:58;;;;;;;7.70;6.90;;;14.60;99.90;;;;;;4861085;29;20583;-82
2022/06/01 10:56:24;;;;;;;10.07;7.20;;;14.50;99.90;;;;;;4882732;29;20052;-83
2022/06/01 10:58:51;;;;;;;6.95;6.03;;;14.40;99.90;;;;;;4881987;29;20095;-84
2022/06/01 11:01:41;;;;;;;6.53;5.35;;;14.30;99.90;;;;;;4852019;29;20479;-83
2022/06/01 11:04:18;;;;;;;5.93;5.38;;;14.30;99.90;;;;;;4878994;29;20557;-84
2022/06/01 11:07:14;;;;;;;10.27;6.68;;;14.20;99.90;;;;;;4870776;29;20044;-84
2022/06/01 11:10:10;;;;;;;6.05;5.45;;;14.60;99.90;;;;;;4878686;29;20048;-83
2022/06/01 11:12:55;;;;;;;6.00;5.10;;;14.90;99.90;;;;;;4886872;29;20049;-83
2022/06/01 11:15:50;;;;;;;5.30;4.80;;;14.90;99.90;;;;;;4882910;29;20045;-83
2022/06/01 11:18:34;;;;;;;6.07;5.18;;;14.80;99.90;;;;;;4884902;29;20080;-84
2022/06/01 11:21:18;;;;;;;6.00;5.43;;;14.60;99.90;;;;;;4885168;29;20418;-83
2022/06/01 11:24:12;;;;;;;11.70;6.57;;;14.40;99.90;;;;;;4870745;29;20036;-85
2022/06/01 11:26:53;;;;;;;6.28;4.10;;;14.30;99.90;;;;;;4861017;29;20045;-85
2022/06/01 11:29:28;;;;;;;7.45;4.57;;;13.80;99.90;;;;;;4871179;29;20049;-88
2022/06/01 11:31:59;;;;;;;4.90;3.67;;;13.40;99.90;;;;;;4872845;29;20087;-87
2022/06/01 11:34:32;;;;;;;4.03;3.63;;;13.00;99.90;;;;;;4866935;29;20059;-87
2022/06/01 11:37:09;;;;;;;5.70;3.87;;;12.70;99.90;;;;;;4867276;29;20041;-88
2022/06/01 11:39:53;;;;;;;7.40;3.67;;;12.40;99.90;;;;;;4865387;29;20033;-87
2022/06/01 11:42:38;;;;;;;5.73;3.40;;;12.30;99.90;;;;;;4881789;29;20390;-86
2022/06/01 11:45:09;;;;;;;5.33;3.30;;;12.20;99.90;;;;;;4882103;29;20147;-86
2022/06/01 11:47:43;;;;;;;5.15;3.33;;;12.00;99.90;;;;;;4873548;29;20036;-85
2022/06/01 11:50:26;;;;;;;3.50;2.50;;;12.00;99.90;;;;;;4857660;29;20047;-84
2022/06/01 11:53:05;;;;;;;4.00;2.40;;;11.90;99.90;;;;;;4875116;29;20153;-85
2022/06/01 11:55:37;;;;;;;3.30;2.00;;;11.90;99.90;;;;;;4865346;29;20044;-86
2022/06/01 11:58:04;;;;;;;;;;;12.00;99.90;;;;;;4866817;29;20055;-83
2022/06/01 12:00:45;;;;;;;2.23;2.03;;;12.20;99.90;;;;;;4869220;29;19971;-83
2022/06/01 12:03:17;;;;;;;2.87;1.90;;;12.40;99.90;;;;;;4879852;29;20058;-86
2022/06/01 12:06:14;;;;;;;1.55;1.27;;;12.50;99.90;;;;;;4867161;29;20036;-86
2022/06/01 12:09:00;;;;;;;1.63;1.53;;;12.60;99.90;;;;;;4879961;29;20087;-85
2022/06/01 12:11:38;;;;;;;1.40;1.30;;;12.60;99.90;;;;;;4878015;29;20108;-87
2022/06/01 12:14:31;;;;;;;2.93;1.70;;;12.70;99.90;;;;;;4861531;29;20041;-87
2022/06/01 12:17:15;;;;;;;2.07;1.23;;;12.90;99.90;;;;;;4873275;29;20047;-86
2022/06/01 12:19:45;;;;;;;1.30;1.20;;;13.10;99.90;;;;;;4877724;29;20064;-86
2022/06/01 12:28:31;;;;;;;1.40;1.30;;;13.30;99.90;;;;;;4846844;29;20058;-86
2022/06/01 12:28:35;;;;;;;1.93;1.63;;;13.60;99.90;;;;;;4864642;29;20041;-86
2022/06/01 12:31:12;;;;;;;2.10;1.90;;;13.90;99.90;;;;;;4884869;29;20068;-86
2022/06/01 12:34:16;;;;;;;2.17;1.63;;;14.30;99.90;;;;;;4878073;29;20104;-86
2022/06/01 12:36:42;;;;;;;2.40;1.60;;;14.60;99.90;;;;;;4881191;29;20068;-85
2022/06/01 12:39:26;;;;;;;2.20;2.07;;;14.90;99.90;;;;;;4867116;29;20048;-85
2022/06/01 12:41:59;;;;;;;1.77;1.40;;;15.30;99.90;;;;;;4881306;29;20051;-84
2022/06/01 12:44:26;;;;;;;1.88;1.42;;;15.60;99.90;;;;;;4881479;29;20048;-85
2022/06/01 12:46:52;;;;;;;2.20;2.00;;;15.80;99.90;;;;;;4848039;29;20087;-85
2022/06/01 12:49:37;;;;;;;1.88;1.67;;;15.70;99.90;;;;;;4874366;29;20072;-85
2022/06/01 12:52:05;;;;;;;2.65;1.63;;;15.60;99.90;;;;;;4883201;29;20048;-84
2022/06/01 12:54:37;;;;;;;2.88;1.80;;;15.40;99.90;;;;;;4869297;29;20044;-85
2022/06/01 12:57:04;;;;;;;;;;;15.30;99.90;;;;;;4860458;29;20550;-85
2022/06/01 12:59:37;;;;;;;2.28;2.08;;;15.20;99.90;;;;;;4864265;29;19923;-85
2022/06/01 13:02:10;;;;;;;3.67;1.85;;;15.20;99.90;;;;;;4864194;29;20048;-85
2022/06/01 13:04:37;;;;;;;2.00;1.85;;;15.50;99.90;;;;;;4865187;29;20135;-86
2022/06/01 13:07:05;;;;;;;1.77;1.48;;;15.80;99.90;;;;;;4883101;29;20177;-85
2022/06/01 13:09:33;;;;;;;1.58;1.23;;;16.10;99.90;;;;;;4866395;29;20044;-85
2022/06/01 13:12:02;;;;;;;1.20;1.15;;;16.20;99.90;;;;;;4879784;29;20697;-86
2022/06/01 13:14:30;;;;;;;1.77;1.30;;;16.20;99.90;;;;;;4867022;29;20040;-84
2022/06/01 13:17:14;;;;;;;1.52;1.42;;;16.00;99.90;;;;;;4864135;29;20100;-86
2022/06/01 13:19:40;;;;;;;2.35;1.50;;;15.70;99.90;;;;;;4859483;29;20083;-84
2022/06/01 13:22:19;;;;;;;1.88;1.50;;;15.50;99.90;;;;;;4867242;29;20501;-86
2022/06/01 13:25:28;;;;;;;2.42;1.48;;;15.10;99.90;;;;;;4874004;29;20688;-84